Time;durP1;ratioP1;P1;durP2;ratioP2;P2;SDS_P1;SDS_P2;PMS_P1;PMS_P2;Temp;Humidity;BMP_temperature;BMP_pressure;BME280_temperature;BME280_humidity;BME280_pressure;Samples;Min_cycle;Max_cycle;Signal;HPM_P1;HPM_P2
2023/03/06 00:00:21;;;;;;;6.55;2.70;;;7.40;68.20;;;;;;5094273;28;20016;-60
2023/03/06 00:02:46;;;;;;;6.10;2.63;;;7.40;68.30;;;;;;5090596;28;20502;-64
2023/03/06 00:05:13;;;;;;;7.82;3.20;;;7.30;68.30;;;;;;5076182;28;20024;-62
2023/03/06 00:07:40;;;;;;;5.57;2.65;;;7.30;68.40;;;;;;5093960;28;20016;-60
2023/03/06 00:10:06;;;;;;;7.43;2.92;;;7.30;68.50;;;;;;5093885;28;20039;-61
2023/03/06 00:12:32;;;;;;;6.75;2.40;;;7.30;68.60;;;;;;5089312;28;20020;-60
2023/03/06 00:14:57;;;;;;;5.90;2.42;;;7.20;68.60;;;;;;5094140;28;20031;-60
2023/03/06 00:17:23;;;;;;;5.90;2.45;;;7.20;68.70;;;;;;5093893;28;20027;-60
2023/03/06 00:19:49;;;;;;;7.50;2.80;;;7.20;68.80;;;;;;5098149;28;20020;-60
2023/03/06 00:22:15;;;;;;;6.13;2.83;;;7.20;68.80;;;;;;5093149;28;20039;-60
2023/03/06 00:24:41;;;;;;;6.80;2.78;;;7.20;68.80;;;;;;5097793;28;20035;-60
2023/03/06 00:27:10;;;;;;;7.50;3.10;;;7.20;68.80;;;;;;5092760;28;20032;-60
2023/03/06 00:29:36;;;;;;;6.90;2.42;;;7.10;68.80;;;;;;5097729;28;20357;-61
2023/03/06 00:32:02;;;;;;;6.75;2.63;;;7.10;69.50;;;;;;5083124;28;20111;-60
2023/03/06 00:34:28;;;;;;;7.60;3.10;;;7.10;68.90;;;;;;5096781;28;20053;-61
2023/03/06 00:36:53;;;;;;;8.95;2.72;;;7.10;69.00;;;;;;5101031;28;20356;-60
2023/03/06 00:39:19;;;;;;;7.13;3.00;;;7.00;69.00;;;;;;5099914;28;20532;-60
2023/03/06 00:41:45;;;;;;;6.68;3.00;;;7.00;69.00;;;;;;5097690;28;20123;-61
2023/03/06 00:44:11;;;;;;;6.90;2.70;;;7.00;69.10;;;;;;5096216;28;20114;-61
2023/03/06 00:46:37;;;;;;;5.82;2.58;;;7.00;69.10;;;;;;5104499;28;20051;-61
2023/03/06 00:49:02;;;;;;;5.82;2.50;;;7.00;69.10;;;;;;5098338;28;20073;-60
2023/03/06 00:51:29;;;;;;;5.78;2.85;;;7.00;69.20;;;;;;5101275;28;20047;-60
2023/03/06 00:53:55;;;;;;;6.18;2.58;;;6.90;69.10;;;;;;5095636;28;20032;-61
2023/03/06 00:56:21;;;;;;;6.55;2.97;;;6.90;69.20;;;;;;5102459;28;20027;-61
2023/03/06 00:58:47;;;;;;;5.50;2.60;;;6.90;69.20;;;;;;5097669;28;20110;-61
2023/03/06 01:01:12;;;;;;;7.40;3.00;;;6.90;69.30;;;;;;5097727;28;20032;-61
2023/03/06 01:03:38;;;;;;;7.75;2.88;;;6.90;69.30;;;;;;5096856;28;20359;-61
2023/03/06 01:06:04;;;;;;;7.00;2.97;;;6.80;69.30;;;;;;5096720;28;20035;-61
2023/03/06 01:08:31;;;;;;;7.57;3.03;;;6.80;69.30;;;;;;5093730;28;20028;-61
2023/03/06 01:10:56;;;;;;;6.65;2.85;;;6.80;69.40;;;;;;5106252;28;20084;-61
2023/03/06 01:13:22;;;;;;;6.00;2.92;;;6.70;69.40;;;;;;5098264;28;20457;-61
2023/03/06 01:15:50;;;;;;;6.38;2.72;;;6.80;69.60;;;;;;5096032;28;20040;-61
2023/03/06 01:18:15;;;;;;;7.22;3.30;;;6.70;69.50;;;;;;5098410;28;20121;-61
2023/03/06 01:20:41;;;;;;;5.80;2.65;;;6.70;69.60;;;;;;5103548;28;20036;-61
2023/03/06 01:23:07;;;;;;;7.30;3.15;;;6.70;69.60;;;;;;5101812;28;20517;-61
2023/03/06 01:25:33;;;;;;;7.13;3.17;;;6.70;69.70;;;;;;5095406;28;20027;-61
2023/03/06 01:27:59;;;;;;;6.63;3.30;;;6.70;69.70;;;;;;5099750;28;20028;-61
2023/03/06 01:30:24;;;;;;;6.95;3.22;;;6.70;69.80;;;;;;5098223;28;20027;-61
2023/03/06 01:32:50;;;;;;;6.97;3.30;;;6.70;69.80;;;;;;5101048;28;20441;-61
2023/03/06 01:35:16;;;;;;;7.20;3.47;;;6.60;69.80;;;;;;5107009;28;20016;-61
2023/03/06 01:37:42;;;;;;;8.18;3.60;;;6.60;69.90;;;;;;5085193;28;20024;-61
2023/03/06 01:40:09;;;;;;;7.15;3.35;;;6.60;70.00;;;;;;5095762;28;20024;-61
2023/03/06 01:42:35;;;;;;;7.10;3.58;;;6.60;69.90;;;;;;5102530;28;20059;-61
2023/03/06 01:45:27;;;;;;;7.30;3.50;;;6.60;69.90;;;;;;5095393;28;20020;-61
2023/03/06 01:47:52;;;;;;;7.53;3.20;;;6.60;70.00;;;;;;5090677;28;20461;-61
2023/03/06 01:50:18;;;;;;;8.85;3.40;;;6.60;70.00;;;;;;5095285;28;20115;-61
2023/03/06 01:52:52;;;;;;;6.50;3.50;;;6.60;69.90;;;;;;5098473;28;20039;-61
2023/03/06 01:55:29;;;;;;;9.40;3.90;;;6.60;69.90;;;;;;5101161;28;20016;-61
2023/03/06 01:57:58;;;;;;;7.65;3.13;;;6.60;70.00;;;;;;5089533;28;20024;-61
2023/03/06 02:00:27;;;;;;;7.47;3.58;;;6.60;70.00;;;;;;5078457;28;20059;-61
2023/03/06 02:03:16;;;;;;;10.57;3.97;;;6.60;70.00;;;;;;5105020;28;20405;-61
2023/03/06 02:05:43;;;;;;;8.57;4.00;;;6.60;70.00;;;;;;5098667;28;20020;-61
2023/03/06 02:08:12;;;;;;;8.73;4.53;;;6.60;70.10;;;;;;5094113;28;20051;-61
2023/03/06 02:11:09;;;;;;;8.30;4.40;;;6.60;70.10;;;;;;5096124;28;20028;-61
2023/03/06 02:13:36;;;;;;;9.07;4.47;;;6.50;70.10;;;;;;5099207;28;20093;-60
2023/03/06 02:16:02;;;;;;;9.70;5.15;;;6.50;70.10;;;;;;5095952;28;20025;-61
2023/03/06 02:18:29;;;;;;;9.57;5.18;;;6.50;70.20;;;;;;5096616;28;20038;-60
2023/03/06 02:20:58;;;;;;;12.30;5.72;;;6.50;70.80;;;;;;5095360;28;20039;-61
2023/03/06 02:23:35;;;;;;;9.45;5.53;;;6.50;70.20;;;;;;5104740;28;20027;-61
2023/03/06 02:26:01;;;;;;;10.85;6.60;;;6.50;70.30;;;;;;5095997;28;20369;-61
2023/03/06 02:28:27;;;;;;;13.15;6.47;;;6.50;70.30;;;;;;5098272;28;20028;-61
2023/03/06 02:30:54;;;;;;;11.00;5.95;;;6.40;70.30;;;;;;5089471;28;20031;-61
2023/03/06 02:33:24;;;;;;;11.88;5.95;;;6.40;70.30;;;;;;5093629;28;20372;-61
2023/03/06 02:35:56;;;;;;;10.18;5.88;;;6.40;70.40;;;;;;5095946;28;20024;-61
2023/03/06 02:38:35;;;;;;;9.40;5.90;;;6.40;70.50;;;;;;5104447;28;20106;-61
2023/03/06 02:41:04;;;;;;;13.85;6.65;;;6.40;70.50;;;;;;5088087;28;20028;-61
2023/03/06 02:43:34;;;;;;;11.43;6.55;;;6.40;70.60;;;;;;5098902;28;20042;-61
2023/03/06 02:46:01;;;;;;;14.40;7.25;;;6.30;70.60;;;;;;5097458;28;20086;-60
2023/03/06 02:48:26;;;;;;;12.85;7.75;;;6.40;70.70;;;;;;5099975;28;20060;-61
2023/03/06 02:50:52;;;;;;;14.13;8.18;;;6.30;70.70;;;;;;5077742;28;20332;-61
2023/03/06 02:53:20;;;;;;;13.68;8.73;;;6.30;70.80;;;;;;5097869;28;20531;-61
2023/03/06 02:55:46;;;;;;;14.95;8.48;;;6.30;70.90;;;;;;5095977;28;20032;-61
2023/03/06 02:58:14;;;;;;;16.40;9.68;;;6.30;71.00;;;;;;5096934;28;20448;-61
2023/03/06 03:00:40;;;;;;;15.73;8.88;;;6.30;71.00;;;;;;5089771;28;20372;-61
2023/03/06 03:03:08;;;;;;;13.43;8.98;;;6.30;71.00;;;;;;5097500;28;20052;-61
2023/03/06 03:05:34;;;;;;;16.23;9.38;;;6.30;71.00;;;;;;5095202;28;20051;-62
2023/03/06 03:08:07;;;;;;;15.30;9.02;;;6.20;71.00;;;;;;5093541;28;20032;-61
2023/03/06 03:10:33;;;;;;;14.52;9.25;;;6.20;71.00;;;;;;5096513;28;20404;-61
2023/03/06 03:12:59;;;;;;;14.00;9.40;;;6.20;71.10;;;;;;5094587;28;20060;-61
2023/03/06 03:15:25;;;;;;;14.93;9.82;;;6.20;71.10;;;;;;5095435;28;20353;-61
2023/03/06 03:17:51;;;;;;;15.98;10.18;;;6.30;71.20;;;;;;5094667;28;20012;-61
2023/03/06 03:20:19;;;;;;;17.17;10.23;;;6.30;71.30;;;;;;5092214;28;20368;-61
2023/03/06 03:22:51;;;;;;;17.02;11.23;;;6.20;71.30;;;;;;5093630;28;20027;-60
2023/03/06 03:25:17;;;;;;;17.92;10.80;;;6.20;71.40;;;;;;5092062;28;20115;-61
2023/03/06 03:27:43;;;;;;;17.52;11.57;;;6.20;71.40;;;;;;5093626;28;20463;-61
2023/03/06 03:30:11;;;;;;;16.20;10.00;;;6.20;71.40;;;;;;5093123;28;20039;-61
2023/03/06 03:32:37;;;;;;;16.63;11.23;;;6.20;71.40;;;;;;5093680;28;20465;-61
2023/03/06 03:35:05;;;;;;;17.77;10.68;;;6.20;71.50;;;;;;5098655;28;20453;-61
2023/03/06 03:37:33;;;;;;;16.45;10.27;;;6.20;71.50;;;;;;5093751;28;20028;-61
2023/03/06 03:39:59;;;;;;;17.43;11.13;;;6.20;71.50;;;;;;5092992;28;20035;-61
2023/03/06 03:42:25;;;;;;;16.83;10.18;;;6.30;71.60;;;;;;5067584;28;20025;-61
2023/03/06 03:44:52;;;;;;;17.23;11.02;;;6.30;71.60;;;;;;5095849;28;20030;-61
2023/03/06 03:47:20;;;;;;;16.35;10.05;;;6.30;71.70;;;;;;5104597;28;20027;-61
2023/03/06 03:49:46;;;;;;;15.70;9.73;;;6.20;71.60;;;;;;5101692;28;20023;-61
2023/03/06 03:52:13;;;;;;;16.08;10.13;;;6.20;71.70;;;;;;5094005;28;20121;-61
2023/03/06 03:54:40;;;;;;;17.92;11.73;;;6.20;71.70;;;;;;5095881;28;20032;-61
2023/03/06 03:57:06;;;;;;;15.88;9.52;;;6.30;71.80;;;;;;5096958;28;20024;-61
2023/03/06 03:59:35;;;;;;;18.48;9.65;;;6.20;71.80;;;;;;5098418;28;20454;-60
2023/03/06 04:02:08;;;;;;;15.93;9.90;;;6.20;71.90;;;;;;5079111;28;20021;-61
2023/03/06 04:04:42;;;;;;;15.63;9.60;;;6.20;71.90;;;;;;5097761;28;20024;-60
2023/03/06 04:07:09;;;;;;;14.38;10.15;;;6.20;71.80;;;;;;5096864;28;20020;-61
2023/03/06 04:09:35;;;;;;;15.80;9.88;;;6.20;71.90;;;;;;5091976;28;20024;-60
2023/03/06 04:12:02;;;;;;;13.98;9.23;;;6.20;71.90;;;;;;5083186;28;20422;-61
2023/03/06 04:14:28;;;;;;;16.23;9.80;;;6.20;71.90;;;;;;5092741;28;20065;-61
2023/03/06 04:16:55;;;;;;;14.55;9.13;;;6.20;71.90;;;;;;5096151;28;20020;-61
2023/03/06 04:19:21;;;;;;;14.73;8.77;;;6.20;71.90;;;;;;5091977;28;20068;-61
2023/03/06 04:21:47;;;;;;;14.25;9.25;;;6.30;72.00;;;;;;5098231;28;20425;-60
2023/03/06 04:24:13;;;;;;;13.93;8.70;;;6.30;72.10;;;;;;5092190;28;20044;-61
2023/03/06 04:26:39;;;;;;;15.80;9.48;;;6.20;72.10;;;;;;5094576;28;20081;-61
2023/03/06 04:29:06;;;;;;;15.57;8.50;;;6.20;72.10;;;;;;5092686;28;20466;-61
2023/03/06 04:31:32;;;;;;;15.00;9.55;;;6.20;72.10;;;;;;5093406;28;20012;-61
2023/03/06 04:33:57;;;;;;;13.43;8.53;;;6.20;72.10;;;;;;5102198;28;20185;-61
2023/03/06 04:36:32;;;;;;;13.80;8.45;;;6.20;72.20;;;;;;5093953;28;20302;-61
2023/03/06 04:39:03;;;;;;;12.93;8.05;;;6.20;72.30;;;;;;5109775;28;20457;-60
2023/03/06 04:41:31;;;;;;;13.32;8.25;;;6.10;72.20;;;;;;5096077;28;20484;-61
2023/03/06 04:43:57;;;;;;;11.98;7.65;;;6.20;72.30;;;;;;5092158;28;20514;-61
2023/03/06 04:46:25;;;;;;;13.20;8.50;;;6.20;72.30;;;;;;5094685;28;20023;-61
2023/03/06 04:48:51;;;;;;;14.98;9.10;;;6.20;72.30;;;;;;5092781;28;20456;-61
2023/03/06 04:51:16;;;;;;;14.13;8.45;;;6.20;72.30;;;;;;5095203;28;20073;-60
2023/03/06 04:53:42;;;;;;;14.32;8.70;;;6.20;72.30;;;;;;5092847;28;20471;-61
2023/03/06 04:56:08;;;;;;;15.60;9.32;;;6.10;72.40;;;;;;5092014;28;20055;-61
2023/03/06 04:58:34;;;;;;;13.73;8.30;;;6.20;72.40;;;;;;5093133;28;20078;-61
2023/03/06 05:01:00;;;;;;;15.10;8.80;;;6.20;73.10;;;;;;5091513;28;20056;-61
2023/03/06 05:03:25;;;;;;;15.68;8.05;;;6.20;72.40;;;;;;5091800;28;20055;-61
2023/03/06 05:05:51;;;;;;;14.40;8.65;;;6.20;72.40;;;;;;5092359;28;20032;-61
2023/03/06 05:08:17;;;;;;;13.48;8.63;;;6.20;72.50;;;;;;5091696;28;20123;-61
2023/03/06 05:10:44;;;;;;;13.50;8.63;;;6.10;72.40;;;;;;5091983;28;20020;-61
2023/03/06 05:13:11;;;;;;;14.88;8.57;;;6.20;72.50;;;;;;5098037;28;20016;-61
2023/03/06 05:15:40;;;;;;;14.43;8.48;;;6.10;72.50;;;;;;5103386;28;20031;-61
2023/03/06 05:18:05;;;;;;;15.55;9.10;;;6.20;72.60;;;;;;5089958;28;20029;-61
2023/03/06 05:20:32;;;;;;;14.82;8.50;;;6.20;72.60;;;;;;5091242;28;20057;-61
2023/03/06 05:22:58;;;;;;;15.35;8.57;;;6.20;72.60;;;;;;5090927;28;20020;-61
2023/03/06 05:25:24;;;;;;;13.67;8.27;;;6.20;72.60;;;;;;5079832;28;20394;-61
2023/03/06 05:27:50;;;;;;;14.20;8.45;;;6.20;72.70;;;;;;5090156;28;20095;-61
2023/03/06 05:30:15;;;;;;;15.40;9.00;;;6.10;72.70;;;;;;5082539;28;20107;-61
2023/03/06 05:32:41;;;;;;;14.77;8.67;;;6.20;72.80;;;;;;5075541;28;20028;-61
2023/03/06 05:35:14;;;;;;;14.23;9.20;;;6.20;72.80;;;;;;5094518;28;20025;-61
2023/03/06 05:37:39;;;;;;;13.98;8.25;;;6.20;72.80;;;;;;5080922;28;20020;-61
2023/03/06 05:40:08;;;;;;;13.90;9.03;;;6.20;72.90;;;;;;5078512;28;20483;-61
2023/03/06 05:42:34;;;;;;;13.60;8.20;;;6.20;72.90;;;;;;5081111;28;20036;-61
2023/03/06 05:45:01;;;;;;;15.38;7.32;;;6.20;73.00;;;;;;5082759;28;20486;-61
2023/03/06 05:47:27;;;;;;;14.18;8.90;;;6.20;73.00;;;;;;5083543;28;20194;-61
2023/03/06 05:49:53;;;;;;;13.70;8.32;;;6.20;73.00;;;;;;5076822;28;20181;-61
2023/03/06 05:52:18;;;;;;;16.33;8.55;;;6.20;73.00;;;;;;5089028;28;20028;-62
2023/03/06 05:54:49;;;;;;;16.60;8.63;;;6.20;73.00;;;;;;5083063;28;20024;-61
2023/03/06 05:57:15;;;;;;;14.55;7.53;;;6.30;73.10;;;;;;5097388;28;20487;-61
2023/03/06 05:59:41;;;;;;;14.73;7.50;;;6.30;73.10;;;;;;5094929;28;20035;-61
2023/03/06 06:02:07;;;;;;;19.97;8.70;;;6.20;73.10;;;;;;5097852;28;20043;-61
2023/03/06 06:04:33;;;;;;;15.97;8.57;;;6.20;73.30;;;;;;5095754;28;20492;-61
2023/03/06 06:06:59;;;;;;;16.45;8.63;;;6.20;73.30;;;;;;5094014;28;20032;-61
2023/03/06 06:09:26;;;;;;;15.60;8.87;;;6.30;73.50;;;;;;5094980;28;20047;-61
2023/03/06 06:11:55;;;;;;;15.67;9.03;;;6.30;73.40;;;;;;5099843;28;20032;-62
2023/03/06 06:14:21;;;;;;;12.73;7.10;;;6.20;73.50;;;;;;5094915;28;20020;-61
2023/03/06 06:16:47;;;;;;;13.67;7.93;;;6.30;73.50;;;;;;5096632;28;20106;-61
2023/03/06 06:19:17;;;;;;;15.20;7.85;;;6.30;73.60;;;;;;5101548;28;20032;-61
2023/03/06 06:21:53;;;;;;;14.15;7.82;;;6.30;73.60;;;;;;5084513;28;20029;-61
2023/03/06 06:24:21;;;;;;;13.97;8.10;;;6.30;73.60;;;;;;5095430;28;20020;-61
2023/03/06 06:26:50;;;;;;;15.10;7.77;;;6.30;73.60;;;;;;5094467;28;20032;-62
2023/03/06 06:29:16;;;;;;;12.60;7.57;;;6.40;73.70;;;;;;5094157;28;20470;-61
2023/03/06 06:31:42;;;;;;;12.25;7.13;;;6.40;73.70;;;;;;5095813;28;20028;-61
2023/03/06 06:34:09;;;;;;;11.35;6.68;;;6.30;73.60;;;;;;5092483;28;20028;-61
2023/03/06 06:36:35;;;;;;;13.25;7.22;;;6.40;73.70;;;;;;5089799;28;20028;-61
2023/03/06 06:39:02;;;;;;;12.23;6.63;;;6.40;73.70;;;;;;5095281;28;20363;-61
2023/03/06 06:41:28;;;;;;;14.18;6.45;;;6.40;73.70;;;;;;5094810;28;20036;-61
2023/03/06 06:43:54;;;;;;;10.20;6.05;;;6.40;73.70;;;;;;5094910;28;20043;-61
2023/03/06 06:46:20;;;;;;;11.52;5.80;;;6.40;73.70;;;;;;5095567;28;20028;-61
2023/03/06 06:48:53;;;;;;;10.47;5.57;;;6.40;73.80;;;;;;5081156;28;20082;-61
2023/03/06 06:51:21;;;;;;;10.07;5.53;;;6.40;73.80;;;;;;5090416;28;20024;-61
2023/03/06 06:53:47;;;;;;;8.77;5.13;;;6.40;73.80;;;;;;5077550;28;20055;-61
2023/03/06 06:56:13;;;;;;;9.00;5.20;;;6.40;73.80;;;;;;5095930;28;20161;-61
2023/03/06 06:58:39;;;;;;;11.73;6.28;;;6.40;73.80;;;;;;5094202;28;20170;-61
2023/03/06 07:01:10;;;;;;;8.15;4.97;;;6.50;73.90;;;;;;5095814;28;20116;-61
2023/03/06 07:03:36;;;;;;;11.80;5.60;;;6.50;73.90;;;;;;5094684;28;20035;-61
2023/03/06 07:06:02;;;;;;;10.67;5.77;;;6.40;73.80;;;;;;5096024;28;20032;-61
2023/03/06 07:08:28;;;;;;;10.77;5.50;;;6.50;74.00;;;;;;5093565;28;20434;-63
2023/03/06 07:10:54;;;;;;;10.13;5.40;;;6.50;74.00;;;;;;5095436;28;20047;-61
2023/03/06 07:13:20;;;;;;;9.88;5.35;;;6.50;74.00;;;;;;5095671;28;20490;-61
2023/03/06 07:15:46;;;;;;;9.60;5.27;;;6.50;73.90;;;;;;5095828;28;20024;-61
2023/03/06 07:18:12;;;;;;;9.80;5.75;;;6.50;73.80;;;;;;5093521;28;20491;-61
2023/03/06 07:20:37;;;;;;;8.18;4.43;;;6.50;73.80;;;;;;5095382;28;20036;-62
2023/03/06 07:23:06;;;;;;;10.77;4.93;;;6.60;73.80;;;;;;5095433;28;20024;-62
2023/03/06 07:25:31;;;;;;;8.10;4.63;;;6.70;73.80;;;;;;5093170;28;20026;-63
2023/03/06 07:27:57;;;;;;;9.23;5.00;;;6.70;73.60;;;;;;5092855;28;20373;-62
2023/03/06 07:30:23;;;;;;;10.57;5.50;;;6.70;73.50;;;;;;5090764;28;20405;-63
2023/03/06 07:32:54;;;;;;;10.52;4.97;;;6.80;73.50;;;;;;5092337;28;20028;-62
2023/03/06 07:35:20;;;;;;;9.00;4.93;;;6.80;73.50;;;;;;5093834;28;20031;-63
2023/03/06 07:37:46;;;;;;;8.50;4.35;;;6.80;73.40;;;;;;5093205;28;20028;-63
2023/03/06 07:40:12;;;;;;;9.47;4.70;;;6.80;73.30;;;;;;5088022;28;20028;-62
2023/03/06 07:42:37;;;;;;;8.40;4.23;;;6.80;73.30;;;;;;5092707;28;20028;-62
2023/03/06 07:45:11;;;;;;;8.45;4.22;;;6.80;73.30;;;;;;5092831;28;20055;-62
2023/03/06 07:47:37;;;;;;;7.40;4.23;;;6.90;73.30;;;;;;5092982;28;20036;-62
2023/03/06 07:50:05;;;;;;;7.90;4.35;;;6.80;73.20;;;;;;5090055;28;20112;-63
2023/03/06 07:52:32;;;;;;;8.52;4.18;;;6.80;73.20;;;;;;5091025;28;20123;-62
2023/03/06 07:54:58;;;;;;;7.65;3.92;;;6.80;73.20;;;;;;5090902;28;20032;-62
2023/03/06 07:57:23;;;;;;;8.97;4.07;;;6.90;73.20;;;;;;5092004;28;20065;-63
2023/03/06 07:59:49;;;;;;;9.90;4.40;;;6.90;73.10;;;;;;5088723;28;20108;-62
2023/03/06 08:02:15;;;;;;;8.77;4.40;;;7.00;73.10;;;;;;5092202;28;20035;-62
2023/03/06 08:04:41;;;;;;;8.38;3.97;;;7.00;72.90;;;;;;5091209;28;20030;-62
2023/03/06 08:07:06;;;;;;;8.45;3.58;;;7.10;73.50;;;;;;5093883;28;20024;-61
2023/03/06 08:09:33;;;;;;;7.00;3.70;;;7.20;72.80;;;;;;5074805;28;20365;-61
2023/03/06 08:12:01;;;;;;;6.75;3.55;;;7.20;72.60;;;;;;5092901;28;20024;-62
2023/03/06 08:14:26;;;;;;;8.18;4.10;;;7.30;72.50;;;;;;5091939;28;20051;-61
2023/03/06 08:16:55;;;;;;;7.97;3.20;;;7.40;72.30;;;;;;5096205;28;20417;-62
2023/03/06 08:19:20;;;;;;;6.10;3.03;;;7.40;72.10;;;;;;5070288;28;20356;-62
2023/03/06 08:21:46;;;;;;;5.38;2.53;;;7.50;71.90;;;;;;5091050;28;20024;-62
2023/03/06 08:24:15;;;;;;;5.85;2.35;;;7.70;71.60;;;;;;5090310;28;20089;-62
2023/03/06 08:26:44;;;;;;;5.40;2.38;;;8.00;71.00;;;;;;5091414;28;20031;-62
2023/03/06 08:29:10;;;;;;;5.80;2.28;;;8.20;70.30;;;;;;5091402;28;20027;-62
2023/03/06 08:31:39;;;;;;;4.88;2.13;;;8.30;70.00;;;;;;5090043;28;20075;-62
2023/03/06 08:34:08;;;;;;;5.25;1.95;;;8.30;69.80;;;;;;5089633;28;20085;-62
2023/03/06 08:36:34;;;;;;;4.90;1.90;;;8.40;69.60;;;;;;5091373;28;20016;-62
2023/03/06 08:39:00;;;;;;;3.80;1.70;;;8.50;69.40;;;;;;5090868;28;20088;-62
2023/03/06 08:41:27;;;;;;;4.18;1.90;;;8.90;68.80;;;;;;5090578;28;20028;-62
2023/03/06 08:43:53;;;;;;;3.60;1.70;;;9.20;68.10;;;;;;5092377;28;20031;-62
2023/03/06 08:46:22;;;;;;;4.40;1.70;;;9.50;67.40;;;;;;5089406;28;20028;-62
2023/03/06 08:48:48;;;;;;;3.20;1.65;;;9.80;66.70;;;;;;5091849;28;20151;-61
2023/03/06 08:51:14;;;;;;;2.88;1.50;;;9.90;66.30;;;;;;5090093;28;20111;-61
2023/03/06 08:53:40;;;;;;;3.63;1.33;;;10.00;66.00;;;;;;5091907;28;20074;-61
2023/03/06 08:56:07;;;;;;;2.35;1.25;;;10.10;65.60;;;;;;5092422;28;20397;-62
2023/03/06 08:58:33;;;;;;;1.67;1.15;;;10.00;65.30;;;;;;5091021;28;20113;-61
2023/03/06 09:00:58;;;;;;;3.15;1.42;;;9.90;65.30;;;;;;5092712;28;20071;-62
2023/03/06 09:03:25;;;;;;;4.13;1.60;;;9.80;65.40;;;;;;5096533;28;20036;-62
2023/03/06 09:05:50;;;;;;;3.55;1.27;;;9.70;65.50;;;;;;5095897;28;20035;-61
2023/03/06 09:08:16;;;;;;;2.38;1.20;;;9.80;65.30;;;;;;5096401;28;20024;-62
2023/03/06 09:10:48;;;;;;;2.15;1.20;;;9.80;65.20;;;;;;5094699;28;20028;-61
2023/03/06 09:13:14;;;;;;;;;;;9.70;64.80;;;;;;5091103;28;20016;-62
2023/03/06 09:15:39;;;;;;;2.22;1.20;;;9.70;65.10;;;;;;5094106;28;20340;-62
2023/03/06 09:18:05;;;;;;;3.10;1.20;;;9.70;65.00;;;;;;5095293;28;20031;-61
2023/03/06 09:20:31;;;;;;;2.05;1.17;;;9.70;64.70;;;;;;5095403;28;20028;-62
2023/03/06 09:22:57;;;;;;;3.42;1.23;;;9.80;64.40;;;;;;5095525;28;20035;-62
2023/03/06 09:25:23;;;;;;;1.38;1.00;;;9.90;64.00;;;;;;5096324;28;20062;-62
2023/03/06 09:27:50;;;;;;;2.67;1.23;;;10.10;63.60;;;;;;5094052;28;20114;-62
2023/03/06 09:30:17;;;;;;;3.80;1.40;;;10.20;63.20;;;;;;5093755;28;20028;-62
2023/03/06 09:32:43;;;;;;;1.75;0.93;;;10.40;62.70;;;;;;5091870;28;20461;-62
2023/03/06 09:35:09;;;;;;;1.67;1.05;;;10.50;62.40;;;;;;5094897;28;20055;-62
2023/03/06 09:37:35;;;;;;;1.17;0.70;;;10.70;62.10;;;;;;5096884;28;20024;-62
2023/03/06 09:40:03;;;;;;;1.38;0.82;;;10.80;61.60;;;;;;5094245;28;20024;-62
2023/03/06 09:42:32;;;;;;;1.80;0.90;;;10.90;61.10;;;;;;5096600;28;20032;-63
2023/03/06 09:45:03;;;;;;;1.45;0.80;;;11.00;60.80;;;;;;5101726;28;20032;-62
2023/03/06 09:47:38;;;;;;;1.35;0.90;;;11.10;60.30;;;;;;5105097;28;20070;-63
2023/03/06 09:50:31;;;;;;;1.80;0.90;;;11.10;60.00;;;;;;5103895;28;20405;-62
2023/03/06 09:53:15;;;;;;;2.03;0.93;;;11.20;59.60;;;;;;5094531;28;20040;-61
2023/03/06 09:55:43;;;;;;;1.48;0.82;;;11.30;59.50;;;;;;5095896;28;20445;-62
2023/03/06 09:58:29;;;;;;;1.13;0.70;;;11.20;59.30;;;;;;5101915;28;20031;-61
2023/03/06 10:01:19;;;;;;;0.80;0.60;;;11.20;59.20;;;;;;5089530;28;20039;-62
2023/03/06 10:04:12;;;;;;;1.17;0.63;;;11.00;59.10;;;;;;5095218;28;20421;-62
2023/03/06 10:06:48;;;;;;;1.85;0.95;;;11.00;59.00;;;;;;5091820;28;20028;-62
2023/03/06 10:09:39;;;;;;;2.60;0.80;;;11.20;58.60;;;;;;5077994;28;20070;-63
2023/03/06 10:12:15;;;;;;;1.17;0.70;;;11.40;58.10;;;;;;5093463;28;20024;-63
2023/03/06 10:14:47;;;;;;;1.45;0.82;;;11.60;57.60;;;;;;5095932;28;20036;-62
2023/03/06 10:17:22;;;;;;;1.10;0.55;;;11.70;57.10;;;;;;5094871;28;20020;-62
2023/03/06 10:19:48;;;;;;;1.25;0.50;;;11.80;56.70;;;;;;5078012;28;20028;-62
2023/03/06 10:22:30;;;;;;;1.58;0.70;;;11.90;56.50;;;;;;5096326;28;20028;-62
2023/03/06 10:25:02;;;;;;;0.85;0.40;;;12.10;55.90;;;;;;5087769;28;20024;-62
2023/03/06 10:27:49;;;;;;;1.58;0.70;;;12.00;55.70;;;;;;5095065;28;20047;-63
2023/03/06 10:30:40;;;;;;;2.10;0.73;;;11.90;55.50;;;;;;5094953;28;20032;-62
2023/03/06 10:33:25;;;;;;;1.90;0.40;;;11.90;55.40;;;;;;5092042;28;20016;-63
2023/03/06 10:35:53;;;;;;;1.13;0.55;;;11.90;55.10;;;;;;5094669;28;20028;-62
2023/03/06 10:38:24;;;;;;;2.35;0.70;;;12.00;55.00;;;;;;5095031;28;20030;-63
2023/03/06 10:41:10;;;;;;;0.68;0.52;;;12.10;54.50;;;;;;5096119;28;20123;-63
2023/03/06 10:43:58;;;;;;;1.58;0.70;;;12.10;54.60;;;;;;5083250;28;20082;-63
2023/03/06 10:46:36;;;;;;;2.50;0.70;;;12.20;53.60;;;;;;5095743;28;20044;-63
2023/03/06 10:49:24;;;;;;;1.70;0.60;;;12.30;53.50;;;;;;5091736;28;20025;-63
2023/03/06 10:52:13;;;;;;;4.28;0.80;;;12.40;53.30;;;;;;5091799;28;20055;-63
2023/03/06 10:54:42;;;;;;;2.70;0.90;;;12.50;52.70;;;;;;5087997;28;20040;-64
2023/03/06 10:57:26;;;;;;;1.60;0.68;;;12.50;52.60;;;;;;5088770;28;20031;-63
2023/03/06 10:59:58;;;;;;;0.90;0.52;;;12.30;52.10;;;;;;5093853;28;20045;-63
2023/03/06 11:02:23;;;;;;;0.65;0.45;;;12.00;52.30;;;;;;5091237;28;20028;-65
2023/03/06 11:04:52;;;;;;;1.85;0.90;;;11.80;52.60;;;;;;5094997;28;20031;-63
2023/03/06 11:07:21;;;;;;;1.58;0.60;;;11.60;52.60;;;;;;5095581;28;20032;-63
2023/03/06 11:09:55;;;;;;;1.50;0.65;;;11.50;52.60;;;;;;5093753;28;20039;-64
2023/03/06 11:12:21;;;;;;;1.38;0.65;;;11.50;52.20;;;;;;5093882;28;20413;-63
2023/03/06 11:15:09;;;;;;;1.08;0.70;;;11.60;52.20;;;;;;5094215;28;20036;-63
2023/03/06 11:17:38;;;;;;;2.10;0.80;;;11.70;51.70;;;;;;5094086;28;20064;-63
2023/03/06 11:20:21;;;;;;;0.85;0.70;;;11.60;51.80;;;;;;5094779;28;20474;-63
2023/03/06 11:22:55;;;;;;;2.92;0.90;;;11.50;51.50;;;;;;5095287;28;20055;-63
2023/03/06 11:25:26;;;;;;;1.13;0.52;;;11.40;51.50;;;;;;5094121;28;20028;-63
2023/03/06 11:28:04;;;;;;;1.83;0.73;;;11.40;51.50;;;;;;5111347;28;20433;-62
2023/03/06 11:30:38;;;;;;;1.35;0.80;;;11.30;51.40;;;;;;5092642;28;20464;-63
2023/03/06 11:33:29;;;;;;;1.80;0.80;;;11.30;51.40;;;;;;5089548;28;20021;-63
2023/03/06 11:36:25;;;;;;;2.17;0.80;;;11.30;51.30;;;;;;5086869;28;20407;-63
2023/03/06 11:38:52;;;;;;;1.88;0.73;;;11.50;51.30;;;;;;5059020;28;20043;-62
2023/03/06 11:41:41;;;;;;;0.98;0.60;;;11.60;51.10;;;;;;5084253;28;20020;-63
2023/03/06 11:44:34;;;;;;;2.38;0.73;;;11.90;51.30;;;;;;5094455;28;20020;-63
2023/03/06 11:47:23;;;;;;;2.15;0.60;;;11.90;50.40;;;;;;5090828;28;20102;-62
2023/03/06 11:50:09;;;;;;;1.63;0.77;;;11.70;50.60;;;;;;5093668;28;20028;-61
2023/03/06 11:52:56;;;;;;;1.95;0.80;;;11.70;50.80;;;;;;5085725;28;20040;-62
2023/03/06 11:55:52;;;;;;;1.30;0.70;;;11.70;50.50;;;;;;5094612;28;20020;-62
2023/03/06 11:58:49;;;;;;;0.88;0.60;;;11.70;50.30;;;;;;5094951;28;20448;-62
2023/03/06 12:01:49;;;;;;;1.23;0.65;;;11.70;50.10;;;;;;5087867;28;20162;-63
2023/03/06 12:04:33;;;;;;;1.23;0.70;;;11.80;49.80;;;;;;5088696;28;20385;-65
2023/03/06 12:08:00;;;;;;;1.42;0.60;;;11.90;49.40;;;;;;5090810;28;20509;-66
2023/03/06 12:10:46;;;;;;;;;;;11.90;49.20;;;;;;5067610;28;20036;-64
2023/03/06 12:13:17;;;;;;;0.93;0.60;;;11.90;49.80;;;;;;5079600;28;20330;-64
2023/03/06 12:16:15;;;;;;;0.93;0.52;;;11.90;49.70;;;;;;5073116;28;20074;-63
2023/03/06 12:18:41;;;;;;;1.25;0.70;;;11.80;49.30;;;;;;5059802;28;20036;-63
2023/03/06 12:21:12;;;;;;;2.10;0.75;;;11.80;49.50;;;;;;5077399;28;20040;-63
2023/03/06 12:23:56;;;;;;;1.45;0.77;;;11.80;49.40;;;;;;5061419;28;20085;-63
2023/03/06 12:26:43;;;;;;;1.85;0.90;;;11.90;49.10;;;;;;5073408;28;20040;-64
2023/03/06 12:29:37;;;;;;;2.92;0.90;;;12.00;49.10;;;;;;5065071;28;20037;-63
2023/03/06 12:32:13;;;;;;;0.82;0.50;;;12.00;49.00;;;;;;5074745;28;20099;-63
2023/03/06 12:35:11;;;;;;;1.42;0.80;;;12.10;49.10;;;;;;5040365;28;20061;-63
2023/03/06 12:37:54;;;;;;;2.05;0.90;;;12.10;49.10;;;;;;5087275;28;20055;-63
2023/03/06 12:40:34;;;;;;;6.28;1.00;;;12.20;49.10;;;;;;5060965;28;20039;-63
2023/03/06 12:43:20;;;;;;;;;;;12.20;48.90;;;;;;5094497;28;20320;-63
2023/03/06 12:45:48;;;;;;;0.93;0.55;;;12.10;49.30;;;;;;5094632;28;19907;-63
2023/03/06 12:48:21;;;;;;;2.17;0.80;;;12.10;49.30;;;;;;5093842;28;20021;-64
2023/03/06 12:50:48;;;;;;;3.05;0.95;;;12.10;49.10;;;;;;5090897;28;20039;-64
2023/03/06 12:53:30;;;;;;;1.92;1.23;;;12.00;49.10;;;;;;5092233;28;20032;-63
2023/03/06 12:55:57;;;;;;;;;;;12.00;49.00;;;;;;5106839;28;20023;-64
2023/03/06 12:58:45;;;;;;;1.75;0.88;;;11.90;49.30;;;;;;5092232;28;19914;-63
2023/03/06 13:01:47;;;;;;;1.20;0.70;;;11.80;49.30;;;;;;5089636;28;20109;-63
2023/03/06 13:04:35;;;;;;;1.35;0.70;;;11.80;49.20;;;;;;5099349;28;20227;-63
2023/03/06 13:07:30;;;;;;;1.33;0.70;;;11.70;49.50;;;;;;5091781;28;20394;-61